This is the latest recevied weather packets stored in our database for station/object KG2V. If no packets are shown the sender has not sent any weather packets the latest 10 day(s).
| Time | Temp. | Humidity | Pressure | Rain* | Wind** | Luminosity | Snow |
|---|---|---|---|---|---|---|---|
| 1777840080 | 13.33° C | 46% | 1005.5 hPa | 0 mm | - | 249 W/m² | - |
| 1777839778 | 13.33° C | 46% | 1005.2 hPa | 0 mm | - | 233 W/m² | - |
| 1777839476 | 13.33° C | 46% | 1005.4 hPa | 0 mm | - | 290 W/m² | - |
| 1777837049 | 13.33° C | 43% | 1006 hPa | 0 mm | - | 410 W/m² | - |
| 1777836745 | 13.33° C | 42% | 1005.9 hPa | 0 mm | - | 423 W/m² | - |
| 1777836441 | 13.89° C | 42% | 1006 hPa | 0 mm | - | 305 W/m² | - |
| 1777835833 | 13.33° C | 40% | 1006.3 hPa | 0 mm | - | 451 W/m² | - |
| 1777834924 | 13.33° C | 43% | 1006.5 hPa | 0 mm | - | 478 W/m² | - |
| 1777834621 | 13.33° C | 42% | 1006.5 hPa | 0 mm | - | 577 W/m² | - |
| 1777834316 | 13.33° C | 43% | 1006.8 hPa | 0 mm | - | 570 W/m² | - |
| 1777833708 | 12.78° C | 42% | 1006.9 hPa | 0 mm | - | 536 W/m² | - |
| 1777833404 | 12.22° C | 44% | 1007.2 hPa | 0 mm | - | 619 W/m² | - |
| 1777833102 | 11.67° C | 42% | 1007.1 hPa | 0 mm | - | 283 W/m² | - |
| 1777832800 | 12.78° C | 43% | 1007.1 hPa | 0 mm | - | 249 W/m² | - |
| 1777831286 | 12.78° C | 44% | 1007.5 hPa | 0 mm | - | 686 W/m² | - |
| 1777830983 | 12.78° C | 41% | 1007.4 hPa | 0 mm | - | 716 W/m² | - |
| 1777828556 | 12.22° C | 49% | 1007.6 hPa | 0 mm | - | 286 W/m² | - |
| 1777828254 | 12.22° C | 49% | 1007.7 hPa | 0 mm | - | 780 W/m² | - |
| 1777827647 | 12.78° C | 49% | 1008 hPa | 0 mm | - | 417 W/m² | - |
| 1777817649 | 8.89° C | 56% | 1009.2 hPa | 0 mm | - | 313 W/m² | - |
| 1777816738 | 8.33° C | 62% | 1009.3 hPa | 0 mm | - | 134 W/m² | - |
| 1777814012 | 6.67° C | 68% | 1009.9 hPa | 0 mm | - | 43 W/m² | - |
| 1777812802 | 6.11° C | 69% | 1009.8 hPa | 0 mm | - | 40 W/m² | - |
| 1777812498 | 5.56° C | 69% | 1009.8 hPa | 0 mm | - | 39 W/m² | - |
| 1777811894 | 5.56° C | 66% | 1009.9 hPa | 0 mm | - | 38 W/m² | - |
* Rain latest hour (hover to see other rain measurements)
** Current wind speed in m/s (hover to see current wind gust speed)